Budapest, Magyarország

2017 Január 24 04:07 PM (CET időzóna) (GMT +0100)
Damjanich utca | | Change Station

Elev 374 ft 47.51 °N, 19.08 °E | Updated 8 minutes ago

Derült
Derült
30.2 °F
Hőérzet 30 °F
N
0.6
Szél: változó Szél: from keleti
Gusts 1.9 mph

Ma
High -- | Low -- °F
--% Csapadék valószínű
Tegnapi
High -- | Low -- °F
Precip. -- hvlyk.
Légnyomás 30.24 hvlyk.
Látótávolság 3.1 mérföld
Felhők
Hőérzet 30 °F
Harmatpont 23 °F
Páratartalom 75%
Rainfall 0.00 hvlyk.
Hóréteg vastagsága Not available.
7:19 AM 4:32 PM
Fogyó holdsarló, 11% visible
METAR LHBP 241500Z 32008KT 5000 HZ NSC M01/M05 Q1024 TEMPO 4000 BR
Légnyomás 30.24 hvlyk.
Látótávolság 3.1 mérföld
Felhők
Hőérzet 30 °F
Harmatpont 23 °F
Páratartalom 75%
Rainfall 0.00 hvlyk.
Hóréteg vastagsága Not available.
7:19 AM 4:32 PM
Fogyó holdsarló, 11% visible
METAR LHBP 241500Z 32008KT 5000 HZ NSC M01/M05 Q1024 TEMPO 4000 BR

Get Your Daily Forecast Email!

Thanks for signing up!

Be on the lookout for a verification email in your inbox.

You'll start receiving the daily forecast at 8 AM.

×

10-Day Weather Forecast

×

Almanac

Csillagászat

Jan. 24, 2017 Kel Nyugszik
Tényleges idő
Civil alkony
Tengerészeti alkony
Csillagászati alkony
Hold
Látható fény időtartama
A nap hossza
Tomorrow will be .
, % of the Moon is Illuminated

Today's Extremes

Country Highs Country Lows

Community

WunderPhotos

Upload Photos

1,962,540 Fotók feltöltve.

WunderBlog® & News

Nearby

A levegő minősége

  A levegő minősége AQ Index Szennyezőanyag
Not available.

Hóréteg vastagsága

Station Depth Elevation

Earthquake Activity

város Distance Mag. Time & Date
Minimum magnitude displayed is 2.5.

Coastal Water Temperatures

Hely Hőmérséklet

Stations

Közeli meteorológiai állomások

Station Location Hőm. Hőérzet Harmatpont Páratartalom Szél: Precip. Elev Frissítve Type